Time;durP1;ratioP1;P1;durP2;ratioP2;P2;SDS_P1;SDS_P2;PMS_P1;PMS_P2;Temp;Humidity;BMP_temperature;BMP_pressure;BME280_temperature;BME280_humidity;BME280_pressure;Samples;Min_cycle;Max_cycle;Signal;HPM_P1;HPM_P2
2023/06/01 00:01:48;;;;;;;10.23;3.05;;;;;;;;;;7388908;19;20014;-74
2023/06/01 00:04:14;;;;;;;10.30;2.85;;;;;;;;;;7368047;19;20014;-75
2023/06/01 00:06:40;;;;;;;9.25;2.67;;;;;;;;;;7367827;19;20015;-74
2023/06/01 00:09:06;;;;;;;10.07;3.00;;;;;;;;;;7368350;19;20492;-75
2023/06/01 00:11:31;;;;;;;7.85;2.55;;;;;;;;;;7368638;19;20131;-75
2023/06/01 00:13:57;;;;;;;13.20;2.65;;;;;;;;;;7376769;19;20017;-75
2023/06/01 00:16:22;;;;;;;15.70;2.70;;;;;;;;;;7386323;19;20007;-75
2023/06/01 00:18:48;;;;;;;8.13;2.40;;;;;;;;;;7366122;19;20476;-75
2023/06/01 00:21:14;;;;;;;11.27;2.60;;;;;;;;;;7368163;19;20011;-77
2023/06/01 00:23:40;;;;;;;9.98;2.58;;;;;;;;;;7369578;19;20006;-75
2023/06/01 00:26:07;;;;;;;9.88;2.70;;;;;;;;;;7367701;19;20006;-76
2023/06/01 00:28:32;;;;;;;8.85;2.50;;;;;;;;;;7389863;19;20014;-74
2023/06/01 00:30:58;;;;;;;9.50;2.72;;;;;;;;;;7368296;19;20026;-74
2023/06/01 00:33:23;;;;;;;6.47;2.65;;;;;;;;;;7367287;19;20014;-75
2023/06/01 00:35:49;;;;;;;5.53;2.33;;;;;;;;;;7367593;19;20090;-75
2023/06/01 00:38:15;;;;;;;6.88;2.47;;;;;;;;;;7365773;19;20010;-75
2023/06/01 00:40:40;;;;;;;5.28;2.50;;;;;;;;;;7389933;19;20039;-75
2023/06/01 00:43:06;;;;;;;5.05;2.17;;;;;;;;;;7367115;19;20011;-75
2023/06/01 00:45:31;;;;;;;6.88;2.38;;;;;;;;;;7367468;19;20002;-74
2023/06/01 00:47:57;;;;;;;10.05;2.10;;;;;;;;;;7366980;19;20035;-75
2023/06/01 00:50:24;;;;;;;7.47;2.40;;;;;;;;;;7367142;19;20010;-74
2023/06/01 00:52:51;;;;;;;6.82;2.33;;;;;;;;;;7387963;19;20014;-75
2023/06/01 00:55:16;;;;;;;6.55;2.47;;;;;;;;;;7367875;19;20010;-75
2023/06/01 00:57:45;;;;;;;6.25;2.00;;;;;;;;;;7366929;19;20009;-74
2023/06/01 01:00:11;;;;;;;6.53;2.28;;;;;;;;;;7371258;19;20062;-74
2023/06/01 01:02:41;;;;;;;4.20;2.42;;;;;;;;;;7375264;19;20488;-74
2023/06/01 01:05:10;;;;;;;5.35;1.90;;;;;;;;;;7376234;19;20023;-75
2023/06/01 01:08:01;;;;;;;6.70;2.55;;;;;;;;;;7395748;19;20492;-75
2023/06/01 01:10:29;;;;;;;4.80;2.20;;;;;;;;;;7375384;19;20052;-75
2023/06/01 01:13:02;;;;;;;5.30;2.00;;;;;;;;;;7374041;19;20010;-75
2023/06/01 01:15:51;;;;;;;4.22;2.00;;;;;;;;;;7373664;19;20023;-75
2023/06/01 01:18:27;;;;;;;4.78;2.20;;;;;;;;;;7372553;19;20035;-75
2023/06/01 01:21:00;;;;;;;9.73;2.75;;;;;;;;;;7373759;19;20607;-75
2023/06/01 01:23:28;;;;;;;10.00;2.38;;;;;;;;;;7374631;19;20014;-76
2023/06/01 01:26:13;;;;;;;7.07;2.50;;;;;;;;;;7395990;19;19998;-75
2023/06/01 01:28:41;;;;;;;12.60;2.50;;;;;;;;;;7372255;19;20006;-75
2023/06/01 01:31:10;;;;;;;12.18;2.97;;;;;;;;;;7372823;19;20018;-75
2023/06/01 01:33:36;;;;;;;7.07;2.70;;;;;;;;;;7374087;19;20041;-75
2023/06/01 01:36:03;;;;;;;8.18;2.60;;;;;;;;;;7373638;19;20453;-75
2023/06/01 01:38:29;;;;;;;9.93;3.00;;;;;;;;;;7371226;19;20011;-75
2023/06/01 01:40:56;;;;;;;11.77;2.90;;;;;;;;;;7395827;19;20016;-74
2023/06/01 01:43:22;;;;;;;10.27;2.60;;;;;;;;;;7372867;19;20374;-75
2023/06/01 01:46:05;;;;;;;4.63;2.38;;;;;;;;;;7373219;19;20353;-75
2023/06/01 01:48:46;;;;;;;7.03;2.63;;;;;;;;;;7371629;19;20493;-74
2023/06/01 01:51:23;;;;;;;6.75;2.40;;;;;;;;;;7373076;19;20006;-74
2023/06/01 01:53:50;;;;;;;8.02;2.58;;;;;;;;;;7371918;19;20042;-75
2023/06/01 01:56:17;;;;;;;6.68;2.47;;;;;;;;;;7373900;19;20007;-74
2023/06/01 01:58:43;;;;;;;8.05;2.40;;;;;;;;;;7395472;19;20051;-75
2023/06/01 02:01:09;;;;;;;6.18;2.03;;;;;;;;;;7371962;19;20006;-73
2023/06/01 02:03:35;;;;;;;4.15;2.40;;;;;;;;;;7371695;19;20569;-75
2023/06/01 02:06:00;;;;;;;7.20;2.38;;;;;;;;;;7373240;19;20022;-75
2023/06/01 02:08:26;;;;;;;8.75;2.33;;;;;;;;;;7369536;19;20141;-76
2023/06/01 02:10:51;;;;;;;4.68;2.30;;;;;;;;;;7393640;19;20014;-75
2023/06/01 02:13:16;;;;;;;7.28;2.63;;;;;;;;;;7370569;19;20011;-74
2023/06/01 02:15:41;;;;;;;5.00;2.20;;;;;;;;;;7372311;19;20013;-75
2023/06/01 02:18:07;;;;;;;5.15;2.20;;;;;;;;;;7371289;19;20011;-74
2023/06/01 02:20:32;;;;;;;4.32;2.13;;;;;;;;;;7372757;19;20009;-75
2023/06/01 02:22:58;;;;;;;6.38;2.33;;;;;;;;;;7372695;19;20006;-74
2023/06/01 02:25:23;;;;;;;9.65;2.70;;;;;;;;;;7393825;19;20015;-75
2023/06/01 02:27:48;;;;;;;6.68;2.50;;;;;;;;;;7368889;19;20543;-74
2023/06/01 02:30:14;;;;;;;3.78;1.98;;;;;;;;;;7372909;19;20031;-74
2023/06/01 02:32:40;;;;;;;6.40;2.30;;;;;;;;;;7372115;19;20019;-75
2023/06/01 02:35:06;;;;;;;8.93;2.88;;;;;;;;;;7372352;19;20003;-74
2023/06/01 02:37:32;;;;;;;3.92;1.92;;;;;;;;;;7391407;19;20041;-75
2023/06/01 02:39:57;;;;;;;7.88;2.20;;;;;;;;;;7370168;19;20014;-75
2023/06/01 02:42:23;;;;;;;5.22;2.20;;;;;;;;;;7371935;19;20006;-74
2023/06/01 02:44:48;;;;;;;7.55;2.47;;;;;;;;;;7372734;19;20342;-74
2023/06/01 02:47:13;;;;;;;5.35;2.08;;;;;;;;;;7370464;19;20017;-75
2023/06/01 02:49:38;;;;;;;7.78;2.22;;;;;;;;;;7392464;19;20010;-75
2023/06/01 02:52:05;;;;;;;6.53;2.03;;;;;;;;;;7371892;19;20013;-73
2023/06/01 02:54:30;;;;;;;6.18;2.60;;;;;;;;;;7370916;19;20449;-74
2023/06/01 02:56:55;;;;;;;7.75;2.33;;;;;;;;;;7370647;19;20019;-75
2023/06/01 02:59:21;;;;;;;7.00;2.50;;;;;;;;;;7371334;19;20014;-74
2023/06/01 03:01:47;;;;;;;4.28;2.13;;;;;;;;;;7392898;19;20006;-75
2023/06/01 03:04:12;;;;;;;4.97;2.35;;;;;;;;;;7370671;19;20072;-73
2023/06/01 03:06:39;;;;;;;6.95;2.40;;;;;;;;;;7370323;19;20446;-74
2023/06/01 03:09:05;;;;;;;5.85;2.40;;;;;;;;;;7370029;19;20017;-75
2023/06/01 03:11:30;;;;;;;5.28;2.03;;;;;;;;;;7370511;19;20003;-74
2023/06/01 03:13:58;;;;;;;5.80;2.63;;;;;;;;;;7390408;19;20003;-75
2023/06/01 03:16:23;;;;;;;9.02;2.65;;;;;;;;;;7392851;19;20003;-74
2023/06/01 03:18:49;;;;;;;5.45;2.15;;;;;;;;;;7368979;19;20033;-75
2023/06/01 03:21:16;;;;;;;5.43;2.20;;;;;;;;;;7371248;19;20014;-74
2023/06/01 03:23:43;;;;;;;4.05;2.13;;;;;;;;;;7368556;19;20006;-74
2023/06/01 03:26:12;;;;;;;3.95;1.88;;;;;;;;;;7369093;19;20320;-74
2023/06/01 03:28:38;;;;;;;4.72;2.20;;;;;;;;;;7384269;19;19998;-75
2023/06/01 03:31:03;;;;;;;5.65;2.20;;;;;;;;;;7368626;19;20019;-75
2023/06/01 03:33:29;;;;;;;3.75;1.90;;;;;;;;;;7370662;19;20039;-74
2023/06/01 03:35:54;;;;;;;4.22;2.00;;;;;;;;;;7370558;19;20014;-74
2023/06/01 03:38:19;;;;;;;8.75;2.30;;;;;;;;;;7361132;19;20477;-75
2023/06/01 03:40:45;;;;;;;4.22;2.05;;;;;;;;;;7392792;19;20028;-75
2023/06/01 03:43:11;;;;;;;4.43;2.10;;;;;;;;;;7370316;19;20050;-74
2023/06/01 03:45:36;;;;;;;11.75;2.50;;;;;;;;;;7369383;19;20010;-75
2023/06/01 03:48:01;;;;;;;8.27;2.75;;;;;;;;;;7369009;19;20009;-74
2023/06/01 03:50:29;;;;;;;5.13;2.17;;;;;;;;;;7369372;19;20007;-75
2023/06/01 03:52:55;;;;;;;7.55;2.50;;;;;;;;;;7390216;19;20027;-76
2023/06/01 03:55:20;;;;;;;8.02;2.60;;;;;;;;;;7369182;19;20025;-75
2023/06/01 03:57:46;;;;;;;7.10;2.55;;;;;;;;;;7368131;19;20010;-74
2023/06/01 04:00:17;;;;;;;6.72;2.63;;;;;;;;;;7368397;19;20006;-74
2023/06/01 04:02:49;;;;;;;7.20;2.67;;;;;;;;;;7365864;19;20035;-74
2023/06/01 04:05:16;;;;;;;10.77;2.40;;;;;;;;;;7366994;19;20002;-74
2023/06/01 04:07:44;;;;;;;9.25;2.42;;;;;;;;;;7388115;19;20019;-75
2023/06/01 04:10:11;;;;;;;17.92;2.63;;;;;;;;;;7364656;19;20431;-76
2023/06/01 04:12:36;;;;;;;9.48;2.63;;;;;;;;;;7369009;19;20019;-74
2023/06/01 04:15:01;;;;;;;8.85;2.63;;;;;;;;;;7370984;19;20003;-74
2023/06/01 04:17:27;;;;;;;7.00;2.53;;;;;;;;;;7378045;19;20006;-74
2023/06/01 04:19:52;;;;;;;5.25;2.55;;;;;;;;;;7401670;19;20034;-74
2023/06/01 04:22:17;;;;;;;7.30;2.55;;;;;;;;;;7379055;19;20117;-75
2023/06/01 04:24:43;;;;;;;5.20;2.88;;;;;;;;;;7379717;19;20719;-75
2023/06/01 04:27:08;;;;;;;8.50;2.83;;;;;;;;;;7368673;19;20014;-75
2023/06/01 04:29:33;;;;;;;6.65;2.72;;;;;;;;;;7368361;19;20015;-75
2023/06/01 04:31:59;;;;;;;10.65;3.50;;;;;;;;;;7365508;19;20018;-68
2023/06/01 04:34:24;;;;;;;8.13;2.85;;;;;;;;;;7385718;19;20006;-67
2023/06/01 04:36:51;;;;;;;9.48;2.75;;;;;;;;;;7365542;19;20014;-69
2023/06/01 04:39:16;;;;;;;9.25;2.90;;;;;;;;;;7364923;19;20010;-66
2023/06/01 04:41:41;;;;;;;6.70;2.30;;;;;;;;;;7368069;19;20021;-65
2023/06/01 04:44:08;;;;;;;6.78;2.60;;;;;;;;;;7367082;19;20074;-65
2023/06/01 04:46:34;;;;;;;6.68;3.67;;;;;;;;;;7387500;19;20022;-65
2023/06/01 04:49:00;;;;;;;10.80;2.20;;;;;;;;;;7364741;19;20003;-66
2023/06/01 04:51:26;;;;;;;7.65;2.55;;;;;;;;;;7365008;19;20051;-65
2023/06/01 04:53:52;;;;;;;8.98;2.70;;;;;;;;;;7366226;19;20476;-65
2023/06/01 04:56:24;;;;;;;9.88;3.17;;;;;;;;;;7361342;19;20086;-66
2023/06/01 04:58:50;;;;;;;9.27;2.78;;;;;;;;;;7382661;19;20018;-65
2023/06/01 05:01:15;;;;;;;10.00;3.30;;;;;;;;;;7366389;19;20034;-64
2023/06/01 05:03:45;;;;;;;9.93;2.95;;;;;;;;;;7366660;19;20006;-65
2023/06/01 05:06:11;;;;;;;7.75;2.67;;;;;;;;;;7363524;19;20382;-65
2023/06/01 05:08:41;;;;;;;6.32;2.50;;;;;;;;;;7360896;19;20032;-65
2023/06/01 05:11:08;;;;;;;6.00;2.47;;;;;;;;;;7360912;19;20003;-67
2023/06/01 05:13:37;;;;;;;5.22;2.45;;;;;;;;;;7383088;19;20035;-68
2023/06/01 05:16:03;;;;;;;6.63;3.05;;;;;;;;;;7362869;19;20097;-67
2023/06/01 05:18:29;;;;;;;7.70;2.60;;;;;;;;;;7361774;19;20098;-64
2023/06/01 05:20:54;;;;;;;9.27;3.25;;;;;;;;;;7364441;19;20020;-64
2023/06/01 05:23:19;;;;;;;7.57;2.58;;;;;;;;;;7367460;19;20014;-66
2023/06/01 05:25:45;;;;;;;6.07;2.63;;;;;;;;;;7390222;19;20021;-64
2023/06/01 05:28:10;;;;;;;9.20;2.70;;;;;;;;;;7363658;19;20089;-65
2023/06/01 05:30:36;;;;;;;6.35;2.70;;;;;;;;;;7365237;19;20002;-62
2023/06/01 05:33:03;;;;;;;8.02;2.78;;;;;;;;;;7366255;19;20689;-63
2023/06/01 05:35:28;;;;;;;5.57;2.33;;;;;;;;;;7364600;19;20013;-62
2023/06/01 05:37:53;;;;;;;9.23;2.60;;;;;;;;;;7385578;19;20015;-62
2023/06/01 05:40:19;;;;;;;14.93;2.92;;;;;;;;;;7366221;19;20014;-64
2023/06/01 05:42:44;;;;;;;6.03;2.60;;;;;;;;;;7366298;19;20041;-65
2023/06/01 05:45:10;;;;;;;9.15;2.40;;;;;;;;;;7366784;19;20585;-65
2023/06/01 05:47:35;;;;;;;10.48;2.90;;;;;;;;;;7374418;19;20018;-65
2023/06/01 05:50:01;;;;;;;11.35;2.60;;;;;;;;;;7372103;19;20025;-64
2023/06/01 05:52:26;;;;;;;5.93;2.30;;;;;;;;;;7393073;19;20493;-64
2023/06/01 05:54:53;;;;;;;8.63;2.80;;;;;;;;;;7372933;19;20729;-65
2023/06/01 05:57:19;;;;;;;7.82;2.63;;;;;;;;;;7371946;19;20003;-65
2023/06/01 05:59:45;;;;;;;11.25;3.03;;;;;;;;;;7372542;19;20451;-65
2023/06/01 06:02:11;;;;;;;11.30;2.92;;;;;;;;;;7371854;19;20464;-65
2023/06/01 06:04:36;;;;;;;11.30;2.95;;;;;;;;;;7393223;19;20003;-65
2023/06/01 06:07:02;;;;;;;11.88;3.03;;;;;;;;;;7368856;19;20006;-65
2023/06/01 06:09:27;;;;;;;11.57;2.88;;;;;;;;;;7369493;19;20006;-65
2023/06/01 06:11:52;;;;;;;10.70;3.20;;;;;;;;;;7369188;19;20522;-65
2023/06/01 06:14:18;;;;;;;9.73;2.70;;;;;;;;;;7369987;19;20393;-65
2023/06/01 06:16:43;;;;;;;7.70;3.08;;;;;;;;;;7390030;19;20027;-65
2023/06/01 06:19:09;;;;;;;13.18;2.92;;;;;;;;;;7366561;19;20018;-65
2023/06/01 06:21:35;;;;;;;15.15;3.28;;;;;;;;;;7371794;19;20006;-66
2023/06/01 06:24:01;;;;;;;6.40;2.58;;;;;;;;;;7369939;19;20010;-66
2023/06/01 06:26:29;;;;;;;6.85;2.65;;;;;;;;;;7372295;19;20051;-65
2023/06/01 06:28:55;;;;;;;6.82;2.90;;;;;;;;;;7391049;19;20006;-66
2023/06/01 06:31:21;;;;;;;14.00;2.47;;;;;;;;;;7365592;19;20015;-66
2023/06/01 06:33:46;;;;;;;8.55;2.83;;;;;;;;;;7369543;19;20006;-65
2023/06/01 06:36:11;;;;;;;9.63;2.83;;;;;;;;;;7368268;19;20006;-74
2023/06/01 06:38:37;;;;;;;8.38;2.67;;;;;;;;;;7368627;19;20338;-73
2023/06/01 06:41:02;;;;;;;7.47;2.33;;;;;;;;;;7369097;19;19994;-73
2023/06/01 06:43:27;;;;;;;6.07;2.22;;;;;;;;;;7392506;19;20006;-72
2023/06/01 06:45:53;;;;;;;8.75;2.60;;;;;;;;;;7369013;19;20518;-72
2023/06/01 06:48:18;;;;;;;8.52;2.33;;;;;;;;;;7368606;19;20035;-73
2023/06/01 06:50:44;;;;;;;7.75;2.40;;;;;;;;;;7370488;19;20022;-73
2023/06/01 06:53:11;;;;;;;7.38;2.50;;;;;;;;;;7370050;19;20549;-74
2023/06/01 06:55:36;;;;;;;12.38;3.15;;;;;;;;;;7392736;19;20445;-72
2023/06/01 06:58:01;;;;;;;5.25;2.30;;;;;;;;;;7368502;19;20002;-72
2023/06/01 07:00:27;;;;;;;8.88;2.45;;;;;;;;;;7371133;19;20113;-73
2023/06/01 07:02:55;;;;;;;8.30;2.70;;;;;;;;;;7371350;19;20671;-73
2023/06/01 07:05:20;;;;;;;7.53;2.58;;;;;;;;;;7370870;19;20032;-72
2023/06/01 07:07:46;;;;;;;7.70;2.40;;;;;;;;;;7391933;19;20355;-73
2023/06/01 07:10:11;;;;;;;6.03;2.30;;;;;;;;;;7371231;19;20006;-73
2023/06/01 07:12:37;;;;;;;9.35;2.08;;;;;;;;;;7370648;19;20568;-73
2023/06/01 07:15:02;;;;;;;14.27;2.58;;;;;;;;;;7370506;19;20002;-72
2023/06/01 07:17:28;;;;;;;7.43;2.50;;;;;;;;;;7371082;19;20659;-73
2023/06/01 07:19:53;;;;;;;7.68;2.50;;;;;;;;;;7391836;19;19998;-72
2023/06/01 07:22:20;;;;;;;7.40;2.60;;;;;;;;;;7370830;19;20477;-73
2023/06/01 07:24:47;;;;;;;8.57;2.30;;;;;;;;;;7371005;19;20392;-73
2023/06/01 07:27:13;;;;;;;9.68;2.30;;;;;;;;;;7370413;19;20590;-73
2023/06/01 07:29:38;;;;;;;6.30;2.33;;;;;;;;;;7369438;19;20011;-72
2023/06/01 07:32:05;;;;;;;5.38;2.35;;;;;;;;;;7369952;19;20003;-71
2023/06/01 07:34:33;;;;;;;5.57;2.75;;;;;;;;;;7392307;19;20069;-72
2023/06/01 07:36:58;;;;;;;5.70;2.40;;;;;;;;;;7367744;19;20018;-72
2023/06/01 07:39:24;;;;;;;7.50;2.00;;;;;;;;;;7363232;19;20012;-72
2023/06/01 07:41:53;;;;;;;6.88;2.35;;;;;;;;;;7368437;19;20496;-72
2023/06/01 07:44:18;;;;;;;8.98;2.50;;;;;;;;;;7368056;19;20014;-72
2023/06/01 07:46:44;;;;;;;8.30;2.50;;;;;;;;;;7384263;19;20362;-72
2023/06/01 07:49:13;;;;;;;8.25;2.38;;;;;;;;;;7367720;19;19998;-72
2023/06/01 07:51:39;;;;;;;8.77;2.80;;;;;;;;;;7381818;19;20314;-78
2023/06/01 07:54:05;;;;;;;15.40;3.10;;;;;;;;;;7375027;19;20017;-76
2023/06/01 07:56:30;;;;;;;6.60;2.30;;;;;;;;;;7371272;19;20003;-77
2023/06/01 07:58:57;;;;;;;13.00;2.10;;;;;;;;;;7392604;19;20345;-77
2023/06/01 08:01:22;;;;;;;12.52;3.03;;;;;;;;;;7392678;19;20255;-77
2023/06/01 08:03:48;;;;;;;8.70;2.20;;;;;;;;;;7370339;19;20059;-77
2023/06/01 08:06:14;;;;;;;5.10;2.22;;;;;;;;;;7374273;19;20007;-78
2023/06/01 08:08:40;;;;;;;7.45;2.35;;;;;;;;;;7369196;19;20010;-77
2023/06/01 08:11:06;;;;;;;7.63;2.42;;;;;;;;;;7369844;19;19998;-78
2023/06/01 08:13:31;;;;;;;4.75;1.92;;;;;;;;;;7393441;19;20024;-78
2023/06/01 08:15:56;;;;;;;8.07;2.53;;;;;;;;;;7371050;19;20089;-78
2023/06/01 08:18:22;;;;;;;5.35;2.15;;;;;;;;;;7370906;19;20014;-77
2023/06/01 08:20:48;;;;;;;13.15;2.40;;;;;;;;;;7371465;19;20013;-76
2023/06/01 08:23:16;;;;;;;7.20;2.05;;;;;;;;;;7372104;19;20006;-76
2023/06/01 08:25:42;;;;;;;5.70;2.50;;;;;;;;;;7393660;19;20003;-77
2023/06/01 08:28:08;;;;;;;7.05;1.80;;;;;;;;;;7371288;19;20499;-79
2023/06/01 08:30:33;;;;;;;11.88;2.45;;;;;;;;;;7375578;19;20010;-78
2023/06/01 08:32:58;;;;;;;6.32;2.00;;;;;;;;;;7379208;19;20003;-78
2023/06/01 08:35:25;;;;;;;8.73;2.25;;;;;;;;;;7375349;19;20009;-79
2023/06/01 08:37:50;;;;;;;6.45;2.22;;;;;;;;;;7395096;19;20386;-79
2023/06/01 08:40:16;;;;;;;5.70;2.30;;;;;;;;;;7375342;19;20005;-79
2023/06/01 08:42:52;;;;;;;4.28;2.00;;;;;;;;;;7376725;19;20003;-78
2023/06/01 08:45:19;;;;;;;7.53;2.15;;;;;;;;;;7375976;19;20022;-79
2023/06/01 08:47:45;;;;;;;9.45;2.10;;;;;;;;;;7372989;19;20015;-78
2023/06/01 08:50:11;;;;;;;5.97;2.08;;;;;;;;;;7374348;19;20002;-79
2023/06/01 08:52:38;;;;;;;5.82;2.00;;;;;;;;;;7395488;19;20020;-79
2023/06/01 08:55:04;;;;;;;4.57;2.15;;;;;;;;;;7376439;19;20588;-79
2023/06/01 08:57:30;;;;;;;6.88;2.40;;;;;;;;;;7376538;19;20030;-79
2023/06/01 08:59:57;;;;;;;5.20;2.13;;;;;;;;;;7378214;19;20021;-79
2023/06/01 09:02:23;;;;;;;11.43;2.33;;;;;;;;;;7379287;19;20502;-79
2023/06/01 09:04:49;;;;;;;6.10;2.30;;;;;;;;;;7400407;19;20007;-79
2023/06/01 09:07:14;;;;;;;5.75;2.05;;;;;;;;;;7374986;19;20097;-78
2023/06/01 09:09:40;;;;;;;18.13;2.75;;;;;;;;;;7367758;19;20031;-77
2023/06/01 09:12:29;;;;;;;6.53;2.53;;;;;;;;;;7374523;19;20022;-78
2023/06/01 09:15:03;;;;;;;10.30;2.75;;;;;;;;;;7371685;19;20010;-77
2023/06/01 09:17:29;;;;;;;5.57;2.38;;;;;;;;;;7371835;19;20006;-78
2023/06/01 09:19:55;;;;;;;6.82;2.30;;;;;;;;;;7396614;19;20425;-78
2023/06/01 09:22:21;;;;;;;9.90;2.35;;;;;;;;;;7380750;19;20100;-77
2023/06/01 09:24:59;;;;;;;6.43;2.00;;;;;;;;;;7379127;19;20017;-78
2023/06/01 09:27:26;;;;;;;5.78;2.10;;;;;;;;;;7377044;19;20394;-78
2023/06/01 09:29:56;;;;;;;4.55;2.17;;;;;;;;;;7375218;19;20017;-79
2023/06/01 09:32:21;;;;;;;;;;;;;;;;;;7378079;19;20010;-78
2023/06/01 09:34:47;;;;;;;4.93;2.10;;;;;;;;;;7402181;19;19925;-78
2023/06/01 09:37:13;;;;;;;7.68;2.03;;;;;;;;;;7378806;19;20010;-78
2023/06/01 09:39:39;;;;;;;5.80;2.22;;;;;;;;;;7379390;19;20006;-78
2023/06/01 09:42:06;;;;;;;6.28;2.25;;;;;;;;;;7379073;19;20094;-79
2023/06/01 09:44:40;;;;;;;5.18;2.38;;;;;;;;;;7379804;19;20498;-79
2023/06/01 09:47:15;;;;;;;7.35;2.28;;;;;;;;;;7403217;19;20027;-78
2023/06/01 09:49:42;;;;;;;11.68;2.70;;;;;;;;;;7428039;19;20023;-78
2023/06/01 09:52:07;;;;;;;5.78;2.33;;;;;;;;;;7395373;19;20002;-78
2023/06/01 09:54:36;;;;;;;5.90;2.20;;;;;;;;;;7385720;19;20048;-79
2023/06/01 09:57:03;;;;;;;5.78;2.05;;;;;;;;;;7378316;19;20010;-79
2023/06/01 09:59:30;;;;;;;5.68;2.20;;;;;;;;;;7377470;19;20583;-78
2023/06/01 10:01:57;;;;;;;3.92;2.10;;;;;;;;;;7400344;19;20023;-78
2023/06/01 10:04:26;;;;;;;6.18;2.30;;;;;;;;;;7380395;19;20005;-77
2023/06/01 10:06:54;;;;;;;6.82;2.35;;;;;;;;;;7376588;19;20442;-78
2023/06/01 10:09:21;;;;;;;6.15;2.38;;;;;;;;;;7378727;19;20003;-79
2023/06/01 10:11:49;;;;;;;6.47;2.45;;;;;;;;;;7380699;19;20006;-79
2023/06/01 10:14:17;;;;;;;11.05;2.65;;;;;;;;;;7378776;19;20034;-78
2023/06/01 10:16:43;;;;;;;8.38;2.42;;;;;;;;;;7400998;19;20010;-78
2023/06/01 10:19:12;;;;;;;5.30;2.22;;;;;;;;;;7379754;19;20009;-79
2023/06/01 10:21:39;;;;;;;5.07;2.08;;;;;;;;;;7378831;19;20007;-80
2023/06/01 10:24:06;;;;;;;6.70;2.30;;;;;;;;;;7381295;19;20006;-79
2023/06/01 10:26:39;;;;;;;9.00;2.45;;;;;;;;;;7387730;19;20039;-79
2023/06/01 10:29:05;;;;;;;7.00;2.38;;;;;;;;;;7378635;19;20013;-78
2023/06/01 10:31:38;;;;;;;12.93;2.50;;;;;;;;;;7403915;19;20005;-78
2023/06/01 10:34:05;;;;;;;5.35;1.98;;;;;;;;;;7378454;19;20003;-80
2023/06/01 10:36:52;;;;;;;7.10;2.47;;;;;;;;;;7385474;19;20006;-79
2023/06/01 10:39:33;;;;;;;3.55;2.05;;;;;;;;;;7381851;19;20003;-78
2023/06/01 10:42:12;;;;;;;7.30;2.10;;;;;;;;;;7376835;19;20532;-78
2023/06/01 10:44:40;;;;;;;8.95;2.50;;;;;;;;;;7387711;19;20031;-78
2023/06/01 10:47:35;;;;;;;10.02;2.20;;;;;;;;;;7391382;19;20024;-79
2023/06/01 10:50:00;;;;;;;5.78;2.10;;;;;;;;;;7381770;19;20035;-78
2023/06/01 10:52:32;;;;;;;5.65;2.30;;;;;;;;;;7414780;19;20035;-79
2023/06/01 10:55:19;;;;;;;9.05;2.42;;;;;;;;;;7390680;19;20023;-79
2023/06/01 10:57:45;;;;;;;6.97;2.10;;;;;;;;;;7388072;19;20017;-79
2023/06/01 11:00:26;;;;;;;8.10;2.53;;;;;;;;;;7386229;19;20027;-79
2023/06/01 11:02:55;;;;;;;5.53;2.20;;;;;;;;;;7380782;19;20010;-79
2023/06/01 11:05:43;;;;;;;9.20;2.20;;;;;;;;;;7388327;19;20015;-80
2023/06/01 11:08:09;;;;;;;5.07;2.30;;;;;;;;;;7392449;19;20009;-80
2023/06/01 11:10:50;;;;;;;8.48;2.30;;;;;;;;;;7421292;19;19999;-80
2023/06/01 11:13:18;;;;;;;5.30;2.40;;;;;;;;;;7382905;19;20066;-80
2023/06/01 11:16:25;;;;;;;7.45;2.15;;;;;;;;;;7379849;19;20006;-79
2023/06/01 11:19:07;;;;;;;5.78;2.38;;;;;;;;;;7376800;19;20070;-78
2023/06/01 11:21:39;;;;;;;5.10;2.08;;;;;;;;;;7380709;19;20039;-78
2023/06/01 11:24:07;;;;;;;5.57;2.00;;;;;;;;;;7379398;19;20014;-78
2023/06/01 11:26:41;;;;;;;4.82;2.20;;;;;;;;;;7377282;19;20077;-80
2023/06/01 11:29:21;;;;;;;5.88;2.50;;;;;;;;;;7381807;19;20035;-79
2023/06/01 11:31:54;;;;;;;4.30;2.00;;;;;;;;;;7400856;19;20026;-79
2023/06/01 11:34:25;;;;;;;5.80;1.92;;;;;;;;;;7380662;19;20011;-79
2023/06/01 11:36:51;;;;;;;4.50;2.00;;;;;;;;;;7376880;19;21428;-78
2023/06/01 11:39:28;;;;;;;3.47;1.80;;;;;;;;;;7379246;19;20023;-80
2023/06/01 11:42:07;;;;;;;5.57;1.95;;;;;;;;;;7379218;19;20102;-79
2023/06/01 11:44:34;;;;;;;6.47;2.10;;;;;;;;;;7376736;19;20039;-80
2023/06/01 11:47:00;;;;;;;5.28;2.08;;;;;;;;;;7375781;19;20010;-78
2023/06/01 11:49:26;;;;;;;4.40;2.00;;;;;;;;;;7397225;19;20076;-78
2023/06/01 11:51:53;;;;;;;5.75;2.35;;;;;;;;;;7377570;19;19995;-78
2023/06/01 11:54:22;;;;;;;4.35;1.95;;;;;;;;;;7378117;19;20082;-78
2023/06/01 11:56:48;;;;;;;5.93;2.17;;;;;;;;;;7375821;19;20030;-80
2023/06/01 11:59:13;;;;;;;5.15;2.15;;;;;;;;;;7375794;19;20114;-80
2023/06/01 12:01:44;;;;;;;4.40;2.17;;;;;;;;;;7400467;19;20030;-79
2023/06/01 12:04:16;;;;;;;5.68;2.08;;;;;;;;;;7381426;19;20009;-79
2023/06/01 12:06:42;;;;;;;5.75;2.13;;;;;;;;;;7375950;19;20056;-80
2023/06/01 12:09:08;;;;;;;6.47;2.65;;;;;;;;;;7377230;19;20023;-80
2023/06/01 12:11:34;;;;;;;5.18;2.10;;;;;;;;;;7378948;19;20028;-78
2023/06/01 12:14:00;;;;;;;4.82;1.95;;;;;;;;;;7387455;19;20030;-78
2023/06/01 12:17:06;;;;;;;6.85;2.10;;;;;;;;;;7398126;19;20761;-79
2023/06/01 12:19:33;;;;;;;7.88;2.33;;;;;;;;;;7374178;19;20039;-79
2023/06/01 12:21:59;;;;;;;4.35;2.10;;;;;;;;;;7369048;19;20379;-79
2023/06/01 12:24:33;;;;;;;5.93;2.05;;;;;;;;;;7369639;19;20803;-79
2023/06/01 12:26:59;;;;;;;4.53;2.15;;;;;;;;;;7368781;19;20019;-78
2023/06/01 12:29:58;;;;;;;7.00;2.50;;;;;;;;;;7371321;19;20083;-79
2023/06/01 12:32:23;;;;;;;5.88;2.20;;;;;;;;;;7369888;19;20533;-79
2023/06/01 12:35:08;;;;;;;5.25;2.05;;;;;;;;;;7397032;19;20010;-79
2023/06/01 12:37:34;;;;;;;5.03;2.10;;;;;;;;;;7374603;19;20335;-79
2023/06/01 12:40:00;;;;;;;7.43;2.28;;;;;;;;;;7385208;19;20012;-78
2023/06/01 12:42:39;;;;;;;7.63;2.38;;;;;;;;;;7398276;19;20022;-79
2023/06/01 12:45:07;;;;;;;5.78;2.22;;;;;;;;;;7395799;19;20543;-81
2023/06/01 12:47:44;;;;;;;5.03;2.15;;;;;;;;;;7403341;19;20041;-79
2023/06/01 12:50:12;;;;;;;7.32;2.38;;;;;;;;;;7381228;19;19999;-81
2023/06/01 12:52:38;;;;;;;8.15;1.98;;;;;;;;;;7396329;19;20007;-80
2023/06/01 12:55:04;;;;;;;6.18;2.45;;;;;;;;;;7382780;19;20014;-80
2023/06/01 12:57:32;;;;;;;5.40;2.00;;;;;;;;;;7380478;19;20010;-80
2023/06/01 12:59:58;;;;;;;6.00;2.08;;;;;;;;;;7381735;19;20010;-81
2023/06/01 13:02:23;;;;;;;8.10;2.40;;;;;;;;;;7379360;19;20007;-80
2023/06/01 13:04:50;;;;;;;6.53;2.45;;;;;;;;;;7403358;19;20369;-80
2023/06/01 13:07:15;;;;;;;8.27;2.33;;;;;;;;;;7377663;19;20010;-77
2023/06/01 13:09:41;;;;;;;4.85;2.30;;;;;;;;;;7380062;19;20013;-79
2023/06/01 13:12:07;;;;;;;9.40;2.20;;;;;;;;;;7380372;19;20013;-80
2023/06/01 13:14:37;;;;;;;3.45;1.88;;;;;;;;;;7381586;19;20452;-80
2023/06/01 13:17:03;;;;;;;6.13;1.98;;;;;;;;;;7377870;19;20003;-80
2023/06/01 13:19:28;;;;;;;4.75;2.10;;;;;;;;;;7401811;19;20005;-79
2023/06/01 13:21:54;;;;;;;9.07;2.38;;;;;;;;;;7370865;19;20017;-65
2023/06/01 13:24:19;;;;;;;13.50;3.13;;;;;;;;;;7373126;19;20010;-63
2023/06/01 13:26:45;;;;;;;6.10;2.20;;;;;;;;;;7376109;19;20063;-78
2023/06/01 13:29:10;;;;;;;4.78;2.10;;;;;;;;;;7376088;19;20005;-78
2023/06/01 13:31:37;;;;;;;5.30;2.30;;;;;;;;;;7399134;19;20066;-78
2023/06/01 13:34:03;;;;;;;4.78;2.08;;;;;;;;;;7371777;19;19999;-77
2023/06/01 13:36:29;;;;;;;5.63;2.17;;;;;;;;;;7373530;19;20022;-77
2023/06/01 13:38:54;;;;;;;3.72;1.83;;;;;;;;;;7373726;19;19995;-78
2023/06/01 13:41:19;;;;;;;6.10;2.00;;;;;;;;;;7376012;19;20002;-78
2023/06/01 13:43:46;;;;;;;8.10;2.40;;;;;;;;;;7393824;19;20074;-76
2023/06/01 13:46:11;;;;;;;6.05;2.10;;;;;;;;;;7376488;19;20002;-78
2023/06/01 13:48:37;;;;;;;10.27;2.60;;;;;;;;;;7376319;19;20002;-78
2023/06/01 13:51:04;;;;;;;8.85;2.33;;;;;;;;;;7376657;19;20089;-78
2023/06/01 13:53:29;;;;;;;11.13;3.47;;;;;;;;;;7375364;19;20042;-77
2023/06/01 13:55:55;;;;;;;9.65;2.20;;;;;;;;;;7398634;19;20003;-77
2023/06/01 13:58:20;;;;;;;9.55;2.60;;;;;;;;;;7371233;19;20082;-78
2023/06/01 14:00:46;;;;;;;5.07;1.75;;;;;;;;;;7374431;19;20090;-78
2023/06/01 14:03:12;;;;;;;4.38;1.98;;;;;;;;;;7374006;19;20009;-78
2023/06/01 14:05:37;;;;;;;7.75;2.25;;;;;;;;;;7374777;19;20030;-77
2023/06/01 14:08:04;;;;;;;5.40;1.98;;;;;;;;;;7370257;19;20043;-77
2023/06/01 14:10:30;;;;;;;6.57;2.50;;;;;;;;;;7394003;19;20783;-78
2023/06/01 14:12:56;;;;;;;5.03;2.28;;;;;;;;;;7374070;19;20007;-78
2023/06/01 14:15:21;;;;;;;4.40;2.08;;;;;;;;;;7377358;19;20028;-78
2023/06/01 14:17:47;;;;;;;10.50;2.58;;;;;;;;;;7395309;19;20028;-78
2023/06/01 14:20:12;;;;;;;9.07;2.30;;;;;;;;;;7398666;19;20003;-78
2023/06/01 14:22:38;;;;;;;7.68;2.00;;;;;;;;;;7401281;19;20003;-78
2023/06/01 14:25:04;;;;;;;6.65;2.30;;;;;;;;;;7373639;19;20017;-77
2023/06/01 14:27:29;;;;;;;7.28;2.17;;;;;;;;;;7370802;19;20025;-78
2023/06/01 14:29:54;;;;;;;6.25;2.30;;;;;;;;;;7372765;19;20018;-78
2023/06/01 14:32:20;;;;;;;6.25;2.20;;;;;;;;;;7376845;19;20041;-77
2023/06/01 14:34:45;;;;;;;10.00;2.50;;;;;;;;;;7397705;19;20027;-77
2023/06/01 14:37:11;;;;;;;8.60;2.40;;;;;;;;;;7382777;19;20010;-78
2023/06/01 14:39:38;;;;;;;5.45;2.20;;;;;;;;;;7397350;19;20018;-78
2023/06/01 14:42:03;;;;;;;3.58;2.10;;;;;;;;;;7395795;19;20047;-78
2023/06/01 14:44:31;;;;;;;4.78;1.92;;;;;;;;;;7389835;19;20035;-78